Anderson Municipal-Darlington Field (AID)

 

Airport Diagram
Current Weather/Forecast (IFR Conditions)
METAR KAID 191335Z AUTO 04008KT 4SM DZ OVC005 07/06 A3021 RMK AO2 T00650059
TAF

Airport Information

All Charts
General
Chart Name View
AIRPORT DIAGRAM
AIRPORT DIAGRAM
TAKEOFF MINIMUMS
ALTERNATE MINIMUMS
TAKEOFF MINIMUMS
ALTERNATE MINIMUMS

Approaches
Chart Name Download
ILS OR LOC RWY 30
RNAV (GPS) RWY 30
NDB RWY 30
ILS OR LOC RWY 30
RNAV (GPS) RWY 30
NDB RWY 30


Airport Statistics
Departures Arrivals Local
All Collected Stats since June 2016: 15 13 0
2020 Stats: 3 5 0
October Stats: 1 2 0

Inbound Traffic (Arrivals) - 0

No inbound traffic.


Outbound Traffic (Departures) - 0

No outbound traffic.


Local Traffic (Pattern) - 0

No local traffic.